Disclaimer

Please do not use the information listed here in-flight or in-navigation, as they are not provided to us by the airports but are provided by volunteers, so they might be outdated.

Search


Regions


Airport information page

No radio frequency information is available.

Airport informations:
Latitude: 56° 55' 44.92" N
Longitude: 014° 43' 40.78" E
Elevation: 610 feet - 186 meters
Operating hours: Remarks
Operating agency: Civil government, landing fees and diplomatic clearance may be required
Timezone: UTC+1(+2DT) - Last Sunday in March to last Sunday in October
Fuel: Jet A1, without icing nhibitor.

100/130 MIL Spec, low lead, aviation gasoline (BLUE)

Runway information:
01/19 - 6900 x 148 feet< - >2103 x 45 meters

Recent METARs:
ESMX 202150Z 05007KT 020V100 9999 FEW013 OVC031 02/00 Q1028
ESMX 202220Z AUTO 04007KT 340V080 9999 FEW011/// OVC029/// 02/00 Q1028
ESMX 202250Z AUTO 06008KT 040V100 9999 BKN011/// OVC027/// 02/00 Q1029

Airport on the map: